Alpine Moment — VREV7 — position and weather

sailwx.info

Track history (hours):
 
Tides and Currents Weather Stations Pressure Air Temp Water Temp Dewpoint Dewpoint Depression Visibility Wind Speed Wind Dir Waves Ship Positions

Alpine Moment

Last reported at 2017-Aug-18 12:33 UTC. Time now 2017-Aug-18 23:59 UTC.
Position N 29°28' W 094°51'.

Length 183 m; draft 10.3 m.

Type: Tanker. MMSI: 477185800.

Date/timePositionNaut miles runAvg speedWind from/ knotsBaromVisibWave heightAir tempDewpointWater temp
2017-Aug-18 12:33N 29°28' W 094°51'110.8
2017-Aug-18 12:27N 29°29' W 094°51'510.6
2017-Aug-18 12:00N 29°33' W 094°54'510.5
2017-Aug-18 11:30N 29°37' W 094°58'5 9.7
2017-Aug-18 11:00N 29°42' W 094°60'2 4.7
2017-Aug-18 10:30N 29°44' W 095°01'  
2017-Aug-16 06:02N 29°42' W 095°01'0 8.2
2017-Aug-16 06:00N 29°42' W 095°01'2 1.9
2017-Aug-16 04:51N 29°41' W 094°59'0 0.0
2017-Aug-16 04:27N 29°41' W 094°59'0 0.0
2017-Aug-16 04:00N 29°41' W 094°59'0 0.0
2017-Aug-16 03:30N 29°41' W 094°59'0 0.0
2017-Aug-16 02:15N 29°41' W 094°59'0 0.0
2017-Aug-16 01:45N 29°41' W 094°59'0 0.0
2017-Aug-16 01:24N 29°41' W 094°59'0 0.0
2017-Aug-15 23:00N 29°41' W 094°59'0 0.0
2017-Aug-15 22:30N 29°41' W 094°59'0 0.0
2017-Aug-15 22:00N 29°41' W 094°59'1 1.6
2017-Aug-15 21:30N 29°42' W 094°60'3 5.0
2017-Aug-15 21:00N 29°44' W 095°01'3 5.4
2017-Aug-15 20:30N 29°42' W 094°59'611.6
2017-Aug-15 20:00N 29°36' W 094°57'612.2
2017-Aug-15 19:30N 29°31' W 094°53'612.4
2017-Aug-15 19:00N 29°26' W 094°50'  
Track history (hours):
 
Tides and Currents Weather Stations Pressure Air Temp Water Temp Dewpoint Dewpoint Depression Visibility Wind Speed Wind Dir Waves Ship Positions

Alpine Moment

Last reported at 2017-Aug-18 12:33 UTC. Time now 2017-Aug-18 23:59 UTC.
Position N 29°28' W 094°51'.

Length 183 m; draft 10.3 m.

Type: Tanker. MMSI: 477185800.

Date/timePositionNaut miles runAvg speedWind from/ knotsBaromVisibWave heightAir tempDewpointWater temp
2017-Aug-18 12:33N 29°28' W 094°51'110.8
2017-Aug-18 12:27N 29°29' W 094°51'510.6
2017-Aug-18 12:00N 29°33' W 094°54'510.5
2017-Aug-18 11:30N 29°37' W 094°58'5 9.7
2017-Aug-18 11:00N 29°42' W 094°60'2 4.7
2017-Aug-18 10:30N 29°44' W 095°01'  
2017-Aug-16 06:02N 29°42' W 095°01'0 8.2
2017-Aug-16 06:00N 29°42' W 095°01'2 1.9
2017-Aug-16 04:51N 29°41' W 094°59'0 0.0
2017-Aug-16 04:27N 29°41' W 094°59'0 0.0
2017-Aug-16 04:00N 29°41' W 094°59'0 0.0
2017-Aug-16 03:30N 29°41' W 094°59'0 0.0
2017-Aug-16 02:15N 29°41' W 094°59'0 0.0
2017-Aug-16 01:45N 29°41' W 094°59'0 0.0
2017-Aug-16 01:24N 29°41' W 094°59'0 0.0
2017-Aug-15 23:00N 29°41' W 094°59'0 0.0
2017-Aug-15 22:30N 29°41' W 094°59'0 0.0
2017-Aug-15 22:00N 29°41' W 094°59'1 1.6
2017-Aug-15 21:30N 29°42' W 094°60'3 5.0
2017-Aug-15 21:00N 29°44' W 095°01'3 5.4
2017-Aug-15 20:30N 29°42' W 094°59'611.6
2017-Aug-15 20:00N 29°36' W 094°57'612.2
2017-Aug-15 19:30N 29°31' W 094°53'612.4
2017-Aug-15 19:00N 29°26' W 094°50'  

Dump ship's entire track history